createdAt,value
2018-05-09T00:01:47.038Z,11.50
2018-05-09T00:04:15.098Z,11.50
2018-05-09T00:06:43.002Z,11.50
2018-05-09T00:09:11.038Z,11.50
2018-05-09T00:11:39.098Z,11.40
2018-05-09T00:14:06.960Z,11.40
2018-05-09T00:16:34.880Z,11.40
2018-05-09T00:19:02.699Z,11.30
2018-05-09T00:21:30.779Z,11.30
2018-05-09T00:23:59.179Z,11.30
2018-05-09T00:26:27.420Z,11.20
2018-05-09T00:28:55.351Z,11.20
2018-05-09T00:31:23.359Z,11.20
2018-05-09T00:33:51.199Z,11.10
2018-05-09T00:36:19.120Z,11.10
2018-05-09T00:38:46.879Z,11.10
2018-05-09T00:41:14.799Z,11.10
2018-05-09T00:43:42.659Z,11.10
2018-05-09T00:46:11.381Z,11.10
2018-05-09T00:48:39.583Z,11.00
2018-05-09T00:51:07.679Z,11.00
2018-05-09T00:53:35.639Z,10.90
2018-05-09T00:56:03.499Z,10.90
2018-05-09T00:58:31.396Z,10.90
2018-05-09T01:00:59.279Z,10.80
2018-05-09T01:03:27.221Z,10.80
2018-05-09T01:05:55.420Z,10.80
2018-05-09T01:08:23.579Z,10.80
2018-05-09T01:10:51.440Z,10.70
2018-05-09T01:13:19.482Z,10.70
2018-05-09T01:15:47.420Z,10.80
2018-05-09T01:18:15.521Z,10.80
2018-05-09T01:20:43.500Z,10.80
2018-05-09T01:23:11.400Z,10.80
2018-05-09T01:25:39.360Z,10.90
2018-05-09T01:28:07.260Z,10.90
2018-05-09T01:30:36.040Z,11.00
2018-05-09T01:33:04.060Z,11.00
2018-05-09T01:35:32.079Z,11.00
2018-05-09T01:37:59.899Z,11.00
2018-05-09T01:40:27.737Z,11.00
2018-05-09T01:42:56.880Z,11.00
2018-05-09T01:45:24.757Z,10.90
2018-05-09T01:47:52.618Z,11.00
2018-05-09T01:50:20.936Z,11.00
2018-05-09T01:52:48.877Z,11.00
2018-05-09T01:55:16.937Z,10.90
2018-05-09T01:57:45.217Z,10.90
2018-05-09T02:00:12.897Z,10.90
2018-05-09T02:02:41.594Z,10.90
2018-05-09T02:05:09.514Z,10.90
2018-05-09T02:07:38.134Z,11.00
2018-05-09T02:10:06.296Z,10.90
2018-05-09T02:12:34.313Z,10.90
2018-05-09T02:15:02.254Z,10.90
2018-05-09T02:17:30.411Z,10.90
2018-05-09T02:19:58.373Z,10.90
2018-05-09T02:22:26.234Z,10.80
2018-05-09T02:24:54.279Z,10.80
2018-05-09T02:27:22.178Z,10.80
2018-05-09T02:29:50.293Z,10.70
2018-05-09T02:32:18.237Z,10.70
2018-05-09T02:34:46.314Z,10.60
2018-05-09T02:37:14.254Z,10.50
2018-05-09T02:39:42.535Z,10.50
2018-05-09T02:42:10.376Z,10.50
2018-05-09T02:44:38.938Z,10.50
2018-05-09T02:47:06.838Z,10.50
2018-05-09T02:49:34.975Z,10.40
2018-05-09T02:52:02.875Z,10.40
2018-05-09T02:54:31.575Z,10.50
2018-05-09T02:56:59.455Z,10.50
2018-05-09T02:59:27.496Z,10.40
2018-05-09T03:01:55.456Z,10.40
2018-05-09T03:04:23.535Z,10.40
2018-05-09T03:06:51.334Z,10.40
2018-05-09T03:09:19.355Z,10.40
2018-05-09T03:11:47.416Z,10.40
2018-05-09T03:14:15.824Z,10.40
2018-05-09T03:16:43.773Z,10.30
2018-05-09T03:19:11.880Z,10.30
2018-05-09T03:21:40.476Z,10.30
2018-05-09T03:24:08.673Z,10.30
2018-05-09T03:26:36.414Z,10.30
2018-05-09T03:29:04.416Z,10.30
2018-05-09T03:31:32.253Z,10.20
2018-05-09T03:34:00.153Z,10.20
2018-05-09T03:36:28.033Z,10.20
2018-05-09T03:38:55.873Z,10.20
2018-05-09T03:41:23.733Z,10.20
2018-05-09T03:43:51.774Z,10.20
2018-05-09T03:46:20.278Z,10.20
2018-05-09T03:48:48.214Z,10.20
2018-05-09T03:51:16.454Z,10.20
2018-05-09T03:53:44.456Z,10.30
2018-05-09T03:56:12.314Z,10.40
2018-05-09T03:58:40.214Z,10.40
2018-05-09T04:01:08.108Z,10.50
2018-05-09T04:03:47.778Z,10.80
2018-05-09T04:06:27.619Z,11.20
2018-05-09T04:09:07.718Z,11.90
2018-05-09T04:11:36.598Z,12.60
2018-05-09T04:14:04.641Z,13.20
2018-05-09T04:16:33.298Z,13.10
2018-05-09T04:19:01.222Z,13.10
2018-05-09T04:21:29.138Z,12.90
2018-05-09T04:23:57.478Z,12.80
2018-05-09T04:26:25.299Z,12.80
2018-05-09T04:28:53.137Z,13.40
2018-05-09T04:31:20.956Z,14.10
2018-05-09T04:33:49.016Z,14.90
2018-05-09T04:36:17.017Z,15.90
2018-05-09T04:38:46.780Z,16.90
2018-05-09T04:41:14.557Z,17.40
2018-05-09T04:43:42.578Z,18.00
2018-05-09T04:46:10.557Z,18.60
2018-05-09T04:48:38.516Z,19.20
2018-05-09T04:51:06.437Z,19.40
2018-05-09T04:53:34.695Z,19.70
2018-05-09T04:56:02.575Z,19.30
2018-05-09T04:58:30.554Z,18.80
2018-05-09T05:00:58.454Z,18.30
2018-05-09T05:03:26.493Z,17.20
2018-05-09T05:05:54.454Z,16.30
2018-05-09T05:08:23.134Z,15.30
2018-05-09T05:10:51.074Z,15.30
2018-05-09T05:13:19.574Z,15.50
2018-05-09T05:15:48.030Z,15.90
2018-05-09T05:18:16.073Z,16.30
2018-05-09T05:20:46.094Z,16.70
2018-05-09T05:23:14.134Z,16.70
2018-05-09T05:25:42.295Z,16.70
2018-05-09T05:28:11.735Z,16.60
2018-05-09T05:30:39.595Z,16.60
2018-05-09T05:33:07.535Z,16.80
2018-05-09T05:35:35.599Z,16.60
2018-05-09T05:38:03.596Z,16.60
2018-05-09T05:40:31.239Z,16.30
2018-05-09T05:42:58.970Z,16.10
2018-05-09T05:45:26.806Z,16.00
2018-05-09T05:47:54.494Z,15.80
2018-05-09T05:50:22.217Z,15.70
2018-05-09T05:52:50.115Z,15.50
2018-05-09T05:55:18.375Z,15.40
2018-05-09T05:57:46.555Z,15.40
2018-05-09T06:00:14.269Z,15.30
2018-05-09T06:02:42.160Z,15.20
2018-05-09T06:05:09.915Z,15.30
2018-05-09T06:07:37.935Z,15.40
2018-05-09T06:10:05.675Z,15.60
2018-05-09T06:12:33.774Z,16.00
2018-05-09T06:15:01.792Z,16.50
2018-05-09T06:17:30.136Z,16.80
2018-05-09T06:19:58.076Z,17.10
2018-05-09T06:22:26.016Z,17.30
2018-05-09T06:24:53.856Z,17.60
2018-05-09T06:27:22.137Z,17.90
2018-05-09T06:29:49.979Z,18.00
2018-05-09T06:32:17.813Z,18.10
2018-05-09T06:34:45.834Z,18.30
2018-05-09T06:37:13.573Z,18.50
2018-05-09T06:39:41.459Z,18.60
2018-05-09T06:42:10.054Z,18.70
2018-05-09T06:44:37.986Z,18.80
2018-05-09T06:47:06.174Z,18.90
2018-05-09T06:49:34.243Z,18.90
2018-05-09T06:52:02.494Z,19.00
2018-05-09T06:54:30.354Z,18.90
2018-05-09T06:56:58.154Z,19.20
2018-05-09T06:59:26.617Z,19.40
2018-05-09T07:01:54.777Z,19.60
2018-05-09T07:04:23.416Z,20.00
2018-05-09T07:06:51.576Z,20.00
2018-05-09T07:09:19.556Z,20.10
2018-05-09T07:11:48.315Z,20.40
2018-05-09T07:14:16.156Z,20.40
2018-05-09T07:16:46.797Z,20.40
2018-05-09T07:19:15.077Z,20.40
2018-05-09T07:21:42.856Z,20.60
2018-05-09T07:24:10.696Z,20.80
2018-05-09T07:26:38.635Z,20.90
2018-05-09T07:29:06.656Z,21.10
2018-05-09T07:31:34.495Z,21.20
2018-05-09T07:34:02.355Z,21.50
2018-05-09T07:36:30.236Z,21.60
2018-05-09T07:38:58.335Z,21.80
2018-05-09T07:41:26.295Z,21.90
2018-05-09T07:43:54.420Z,21.90
2018-05-09T07:46:22.195Z,21.90
2018-05-09T07:48:50.096Z,22.10
2018-05-09T07:51:18.095Z,22.10
2018-05-09T07:53:45.956Z,22.40
2018-05-09T07:56:13.876Z,22.50
2018-05-09T07:58:41.635Z,22.50
2018-05-09T08:01:10.259Z,22.60
2018-05-09T08:03:38.322Z,22.60
2018-05-09T08:06:06.544Z,22.60
2018-05-09T08:08:34.621Z,22.70
2018-05-09T08:11:02.459Z,22.70
2018-05-09T08:13:30.734Z,22.80
2018-05-09T08:16:01.459Z,22.90
2018-05-09T08:18:29.474Z,23.10
2018-05-09T08:20:57.400Z,23.00
2018-05-09T08:23:25.254Z,22.90
2018-05-09T08:25:53.098Z,22.50
2018-05-09T08:28:21.654Z,21.90
2018-05-09T08:30:49.715Z,21.80
2018-05-09T08:33:17.574Z,21.50
2018-05-09T08:35:46.483Z,21.90
2018-05-09T08:38:14.634Z,21.90
2018-05-09T08:40:42.754Z,22.30
2018-05-09T08:43:10.657Z,22.70
2018-05-09T08:45:38.575Z,22.80
2018-05-09T08:48:06.614Z,23.10
2018-05-09T08:50:34.574Z,23.40
2018-05-09T08:53:02.615Z,23.50
2018-05-09T08:55:31.516Z,23.40
2018-05-09T08:57:58.974Z,23.40
2018-05-09T09:00:26.254Z,23.50
2018-05-09T09:02:54.955Z,23.80
2018-05-09T09:05:23.415Z,24.00
2018-05-09T09:07:51.496Z,24.00
2018-05-09T09:10:19.316Z,24.10
2018-05-09T09:12:47.216Z,24.20
2018-05-09T09:15:15.112Z,24.20
2018-05-09T09:17:43.236Z,24.20
2018-05-09T09:20:13.276Z,24.40
2018-05-09T09:22:41.876Z,24.40
2018-05-09T09:25:09.797Z,24.50
2018-05-09T09:27:37.759Z,24.50
2018-05-09T09:30:05.653Z,24.50
2018-05-09T09:32:33.698Z,24.60
2018-05-09T09:35:01.432Z,24.70
2018-05-09T09:37:29.496Z,24.80
2018-05-09T09:39:57.077Z,24.70
2018-05-09T09:42:24.538Z,24.80
2018-05-09T09:44:52.355Z,24.90
2018-05-09T09:47:20.080Z,24.70
2018-05-09T09:49:48.056Z,24.80
2018-05-09T09:52:16.015Z,24.50
2018-05-09T09:54:43.876Z,24.30
2018-05-09T09:57:11.896Z,24.50
2018-05-09T09:59:39.735Z,24.70
2018-05-09T10:02:07.756Z,24.90
2018-05-09T10:04:35.716Z,24.70
2018-05-09T10:07:03.896Z,24.70
2018-05-09T10:09:32.036Z,24.60
2018-05-09T10:12:00.816Z,24.60
2018-05-09T10:14:28.115Z,24.70
2018-05-09T10:16:57.756Z,24.60
2018-05-09T10:19:25.995Z,24.60
2018-05-09T10:21:53.815Z,24.60
2018-05-09T10:24:21.776Z,24.60
2018-05-09T10:26:49.817Z,24.40
2018-05-09T10:29:17.656Z,24.50
2018-05-09T10:31:45.536Z,24.60
2018-05-09T10:34:14.676Z,24.60
2018-05-09T10:36:42.616Z,23.70
2018-05-09T10:39:10.579Z,23.10
2018-05-09T10:41:38.575Z,22.50
2018-05-09T10:44:06.457Z,22.40
2018-05-09T10:46:34.235Z,22.20
2018-05-09T10:49:02.396Z,22.20
2018-05-09T10:51:30.240Z,22.50
2018-05-09T10:53:58.036Z,22.70
2018-05-09T10:56:26.656Z,23.10
2018-05-09T10:58:54.536Z,23.00
2018-05-09T11:01:22.523Z,23.10
2018-05-09T11:06:22.519Z,23.00
2018-05-09T11:08:50.579Z,23.00
2018-05-09T11:11:19.378Z,22.60
2018-05-09T11:13:47.380Z,22.60
2018-05-09T11:16:15.319Z,22.20
2018-05-09T11:18:43.418Z,22.00
2018-05-09T11:21:12.219Z,21.90
2018-05-09T11:23:40.138Z,21.90
2018-05-09T11:26:08.539Z,22.00
2018-05-09T11:28:37.022Z,22.10
2018-05-09T11:31:04.938Z,22.20
2018-05-09T11:33:32.906Z,22.30
2018-05-09T11:36:00.837Z,22.30
2018-05-09T11:38:29.073Z,22.30
2018-05-09T11:40:57.078Z,22.50
2018-05-09T11:43:24.979Z,22.90
2018-05-09T11:45:52.939Z,23.00
2018-05-09T11:48:21.000Z,23.20
2018-05-09T11:50:49.009Z,23.00
2018-05-09T11:53:17.470Z,22.80
2018-05-09T11:55:45.513Z,22.80
2018-05-09T11:58:13.660Z,22.90
2018-05-09T12:00:41.198Z,23.10
2018-05-09T12:03:08.956Z,23.20
2018-05-09T12:05:36.872Z,23.30
2018-05-09T12:08:04.880Z,23.30
2018-05-09T12:10:32.866Z,23.00
2018-05-09T12:13:01.122Z,22.70
2018-05-09T12:15:29.181Z,22.60
2018-05-09T12:17:57.280Z,22.90
2018-05-09T12:20:26.103Z,23.10
2018-05-09T12:22:54.116Z,23.20
2018-05-09T12:25:22.016Z,23.10
2018-05-09T12:27:50.256Z,23.00
2018-05-09T12:30:18.556Z,23.00
2018-05-09T12:32:47.856Z,23.00
2018-05-09T12:35:15.736Z,22.70
2018-05-09T12:37:43.595Z,22.30
2018-05-09T12:40:11.416Z,22.20
2018-05-09T12:42:40.116Z,22.20
2018-05-09T12:45:08.398Z,22.10
2018-05-09T12:47:36.395Z,22.20
2018-05-09T12:50:04.299Z,22.50
2018-05-09T12:52:32.135Z,22.80
2018-05-09T12:55:00.176Z,22.90
2018-05-09T12:57:28.255Z,23.10
2018-05-09T12:59:56.816Z,23.30
2018-05-09T13:02:24.537Z,23.30
2018-05-09T13:04:52.719Z,23.30
2018-05-09T13:07:20.719Z,23.40
2018-05-09T13:09:48.478Z,23.40
2018-05-09T13:12:16.299Z,23.40
2018-05-09T13:14:44.419Z,23.40
2018-05-09T13:17:12.418Z,23.40
2018-05-09T13:19:40.583Z,23.40
2018-05-09T13:22:08.539Z,23.50
2018-05-09T13:24:36.739Z,23.40
2018-05-09T13:27:07.039Z,23.40
2018-05-09T13:29:36.237Z,23.40
2018-05-09T13:32:04.358Z,23.30
2018-05-09T13:34:31.781Z,23.30
2018-05-09T13:36:59.679Z,23.40
2018-05-09T13:39:27.619Z,23.40
2018-05-09T13:41:55.476Z,23.30
2018-05-09T13:44:23.438Z,23.20
2018-05-09T13:46:51.456Z,23.20
2018-05-09T13:49:20.216Z,23.30
2018-05-09T13:51:48.257Z,23.30
2018-05-09T13:54:16.197Z,23.30
2018-05-09T13:56:44.060Z,23.20
2018-05-09T13:59:11.976Z,23.10
2018-05-09T14:01:39.818Z,23.10
2018-05-09T14:04:09.479Z,22.90
2018-05-09T14:06:37.458Z,22.80
2018-05-09T14:09:05.535Z,22.80
2018-05-09T14:11:33.416Z,22.80
2018-05-09T14:14:01.075Z,22.90
2018-05-09T14:16:28.516Z,23.00
2018-05-09T14:18:56.815Z,23.00
2018-05-09T14:21:24.817Z,23.00
2018-05-09T14:23:52.695Z,23.10
2018-05-09T14:26:20.636Z,23.10
2018-05-09T14:28:48.175Z,23.00
2018-05-09T14:31:16.100Z,23.00
2018-05-09T14:33:44.176Z,23.00
2018-05-09T14:36:12.435Z,23.00
2018-05-09T14:38:40.515Z,23.00
2018-05-09T14:41:08.515Z,23.10
2018-05-09T14:43:36.515Z,23.10
2018-05-09T14:46:04.057Z,23.10
2018-05-09T14:48:31.577Z,23.10
2018-05-09T14:50:59.295Z,23.00
2018-05-09T14:53:26.796Z,23.10
2018-05-09T14:55:54.276Z,23.10
2018-05-09T14:58:22.095Z,23.10
2018-05-09T15:00:49.841Z,23.10
2018-05-09T15:03:17.301Z,23.10
2018-05-09T15:05:45.621Z,23.10
2018-05-09T15:08:13.043Z,23.10
2018-05-09T15:10:40.543Z,23.10
2018-05-09T15:13:09.538Z,23.10
2018-05-09T15:15:37.179Z,23.00
2018-05-09T15:18:04.999Z,23.00
2018-05-09T15:20:33.183Z,23.00
2018-05-09T15:23:00.643Z,23.00
2018-05-09T15:25:28.111Z,22.90
2018-05-09T15:27:55.560Z,22.80
2018-05-09T15:30:22.980Z,22.70
2018-05-09T15:32:50.681Z,22.80
2018-05-09T15:35:18.420Z,22.70
2018-05-09T15:37:45.859Z,22.70
2018-05-09T15:40:14.098Z,22.70
2018-05-09T15:42:41.640Z,22.70
2018-05-09T15:45:09.274Z,22.70
2018-05-09T15:47:37.294Z,22.70
2018-05-09T15:50:05.376Z,22.60
2018-05-09T15:52:33.494Z,22.60
2018-05-09T15:55:01.436Z,22.50
2018-05-09T15:57:29.374Z,22.40
2018-05-09T15:59:57.654Z,22.40
2018-05-09T16:02:25.575Z,22.40
2018-05-09T16:04:53.615Z,22.30
2018-05-09T16:07:21.615Z,22.30
2018-05-09T16:09:49.516Z,22.40
2018-05-09T16:12:17.550Z,22.40
2018-05-09T16:17:17.740Z,22.40
2018-05-09T16:19:45.953Z,22.30
2018-05-09T16:22:13.831Z,22.30
2018-05-09T16:24:41.757Z,22.30
2018-05-09T16:27:09.696Z,22.20
2018-05-09T16:29:37.698Z,22.20
2018-05-09T16:32:05.676Z,22.20
2018-05-09T16:34:33.057Z,22.20
2018-05-09T16:37:01.715Z,22.10
2018-05-09T16:39:29.816Z,22.00
2018-05-09T16:41:57.596Z,22.00
2018-05-09T16:44:25.816Z,21.90
2018-05-09T16:46:53.717Z,21.80
2018-05-09T16:49:21.777Z,21.80
2018-05-09T16:51:50.296Z,21.70
2018-05-09T16:54:18.455Z,21.60
2018-05-09T16:56:46.636Z,21.50
2018-05-09T16:59:16.440Z,21.30
2018-05-09T17:01:44.356Z,21.20
2018-05-09T17:04:13.336Z,21.20
2018-05-09T17:06:41.316Z,21.20
2018-05-09T17:09:09.296Z,21.20
2018-05-09T17:11:37.496Z,21.10
2018-05-09T17:14:06.816Z,21.10
2018-05-09T17:16:34.255Z,21.10
2018-05-09T17:19:01.816Z,21.10
2018-05-09T17:21:35.000Z,21.00
2018-05-09T17:24:02.375Z,20.90
2018-05-09T17:26:29.778Z,20.90
2018-05-09T17:28:57.227Z,20.90
2018-05-09T17:31:24.761Z,20.90
2018-05-09T17:33:52.124Z,20.80
2018-05-09T17:36:19.485Z,20.80
2018-05-09T17:41:19.083Z,20.70
2018-05-09T17:43:47.045Z,20.70
2018-05-09T17:46:14.964Z,20.60
2018-05-09T17:48:42.965Z,20.60
2018-05-09T17:51:11.665Z,20.50
2018-05-09T17:53:39.124Z,20.40
2018-05-09T17:56:07.264Z,20.40
2018-05-09T17:58:35.582Z,20.40
2018-05-09T18:01:03.587Z,20.30
2018-05-09T18:03:31.487Z,20.30
2018-05-09T18:05:59.357Z,20.20
2018-05-09T18:08:28.832Z,20.10
2018-05-09T18:10:57.160Z,20.10
2018-05-09T18:13:24.983Z,20.00
2018-05-09T18:15:52.800Z,20.00
2018-05-09T18:18:20.528Z,19.90
2018-05-09T18:20:49.206Z,19.60
2018-05-09T18:23:16.923Z,19.60
2018-05-09T18:25:44.676Z,19.50
2018-05-09T18:28:12.698Z,19.50
2018-05-09T18:30:40.619Z,19.40
2018-05-09T18:33:08.306Z,19.30
2018-05-09T18:35:36.056Z,19.30
2018-05-09T18:38:03.769Z,19.20
2018-05-09T18:40:31.526Z,19.10
2018-05-09T18:42:59.517Z,19.10
2018-05-09T18:45:27.442Z,18.90
2018-05-09T18:47:55.189Z,18.70
2018-05-09T18:50:22.977Z,18.50
2018-05-09T18:52:50.658Z,18.40
2018-05-09T18:55:18.397Z,18.30
2018-05-09T18:57:46.082Z,18.20
2018-05-09T19:00:13.837Z,18.20
2018-05-09T19:02:41.601Z,18.20
2018-05-09T19:05:09.330Z,18.20
2018-05-09T19:07:37.158Z,18.10
2018-05-09T19:10:05.011Z,18.10
2018-05-09T19:12:32.738Z,18.10
2018-05-09T19:15:01.446Z,18.10
2018-05-09T19:17:29.140Z,18.10
2018-05-09T19:19:57.123Z,18.00
2018-05-09T19:22:24.937Z,17.90
2018-05-09T19:24:52.619Z,17.90
2018-05-09T19:27:20.443Z,17.90
2018-05-09T19:32:20.431Z,17.80
2018-05-09T19:34:48.218Z,17.70
2018-05-09T19:37:15.926Z,17.70
2018-05-09T19:39:43.658Z,17.70
2018-05-09T19:42:11.354Z,17.60
2018-05-09T19:44:39.396Z,17.60
2018-05-09T19:47:07.300Z,17.60
2018-05-09T19:49:35.252Z,17.60
2018-05-09T19:52:03.441Z,17.50
2018-05-09T19:54:36.004Z,17.40
2018-05-09T19:57:04.017Z,17.10
2018-05-09T19:59:31.938Z,17.00
2018-05-09T20:02:00.324Z,17.00
2018-05-09T20:04:28.218Z,16.90
2018-05-09T20:06:55.948Z,16.70
2018-05-09T20:09:23.858Z,16.50
2018-05-09T20:11:51.597Z,16.40
2018-05-09T20:14:19.352Z,16.50
2018-05-09T20:16:47.112Z,16.60
2018-05-09T20:19:14.999Z,16.60
2018-05-09T20:21:43.162Z,16.70
2018-05-09T20:24:10.879Z,16.80
2018-05-09T20:26:38.719Z,16.80
2018-05-09T20:29:06.936Z,16.80
2018-05-09T20:31:52.225Z,16.80
2018-05-09T20:34:20.156Z,16.80
2018-05-09T20:36:47.996Z,16.70
2018-05-09T20:39:15.957Z,16.60
2018-05-09T20:41:43.896Z,16.60
2018-05-09T20:44:11.997Z,16.50
2018-05-09T20:46:41.296Z,16.40
2018-05-09T20:49:09.195Z,16.40
2018-05-09T20:51:49.077Z,16.30
2018-05-09T20:54:16.857Z,16.30
2018-05-09T20:56:44.738Z,16.20
2018-05-09T20:59:12.551Z,16.20
2018-05-09T21:01:49.959Z,16.20
2018-05-09T21:04:18.735Z,16.10
2018-05-09T21:06:46.977Z,16.00
2018-05-09T21:09:15.165Z,16.00
2018-05-09T21:11:48.772Z,16.00
2018-05-09T21:14:16.857Z,16.00
2018-05-09T21:16:44.935Z,15.90
2018-05-09T21:19:12.864Z,15.90
2018-05-09T21:21:40.904Z,15.80
2018-05-09T21:24:08.706Z,15.80
2018-05-09T21:26:36.652Z,15.80
2018-05-09T21:29:05.423Z,15.80
2018-05-09T21:31:33.673Z,15.80
2018-05-09T21:34:01.784Z,15.80
2018-05-09T21:36:29.984Z,15.70
2018-05-09T21:38:58.084Z,15.70
2018-05-09T21:41:26.104Z,15.60
2018-05-09T21:43:54.144Z,15.60
2018-05-09T21:46:22.903Z,15.60
2018-05-09T21:48:50.846Z,15.60
2018-05-09T21:51:18.903Z,15.50
2018-05-09T21:53:46.823Z,15.50
2018-05-09T21:56:14.703Z,15.40
2018-05-09T21:58:42.683Z,15.50
2018-05-09T22:01:10.581Z,15.40
2018-05-09T22:03:38.838Z,15.40
2018-05-09T22:06:07.362Z,15.40
2018-05-09T22:08:36.482Z,15.20
2018-05-09T22:11:04.881Z,15.20
2018-05-09T22:13:32.981Z,15.20
2018-05-09T22:16:01.661Z,15.10
2018-05-09T22:18:29.446Z,15.10
2018-05-09T22:20:57.594Z,15.10
2018-05-09T22:23:25.458Z,15.10
2018-05-09T22:25:53.273Z,15.10
2018-05-09T22:28:21.215Z,15.10
2018-05-09T22:30:49.496Z,15.10
2018-05-09T22:33:17.534Z,15.10
2018-05-09T22:35:45.416Z,14.90
2018-05-09T22:38:13.092Z,14.80
2018-05-09T22:40:41.098Z,14.80
2018-05-09T22:43:09.655Z,14.70
2018-05-09T22:45:37.823Z,14.60
2018-05-09T22:48:05.855Z,14.60
2018-05-09T22:50:33.815Z,14.50
2018-05-09T22:53:01.804Z,14.50
2018-05-09T22:55:29.793Z,14.40
2018-05-09T22:57:58.154Z,14.40
2018-05-09T23:00:26.894Z,14.30
2018-05-09T23:02:54.813Z,14.20
2018-05-09T23:05:23.093Z,14.20
2018-05-09T23:07:50.934Z,14.10
2018-05-09T23:10:19.230Z,14.10
2018-05-09T23:12:47.462Z,14.00
2018-05-09T23:15:15.273Z,14.00
2018-05-09T23:17:43.133Z,13.90
2018-05-09T23:20:10.954Z,13.70
2018-05-09T23:22:38.913Z,13.40
2018-05-09T23:25:06.973Z,13.40
2018-05-09T23:27:34.874Z,13.20
2018-05-09T23:30:02.834Z,13.10
2018-05-09T23:32:30.614Z,12.90
2018-05-09T23:34:58.535Z,12.60
2018-05-09T23:37:27.573Z,12.50
2018-05-09T23:39:55.854Z,12.40
2018-05-09T23:42:23.753Z,12.30
2018-05-09T23:44:51.953Z,12.20
2018-05-09T23:47:19.814Z,12.20
2018-05-09T23:49:47.654Z,12.30
2018-05-09T23:52:15.707Z,12.40
2018-05-09T23:54:43.614Z,12.50
2018-05-09T23:57:11.573Z,12.60
2018-05-09T23:59:39.453Z,12.70
